Ross Creek Scenic Area, Montana
Current Conditions -  °F | °C
As of 1:35 AM on Sunday 26 Oct 2014 (Local Time) from KSZT Reporting Station
Overcast Overcast  
Wind Chill: 54°   Ceiling: 4400
Heat Index: 54°   Visibility: 10mi
Dew Point: 43°   Wind: 12mph
Humidity: 67%   Direction: 200°SSW
Pressure: 29.6"   Gusts: 20mph
Location:  48.22°N, 115.85°W
Report Text: KSZT 260735Z AUTO 20010G17KT 10SM BKN044 OVC050 12/06 A2960 RMK AO2
Loading
Personal Weather Stations






























Interactive Weather Map
Tropical Storm Tracking
New forecast layout! Learn more

10-Day Weather Forecast

Advertisements
Track Severe Weather on mobile